Time;durP1;ratioP1;P1;durP2;ratioP2;P2;SDS_P1;SDS_P2;PMS_P1;PMS_P2;Temp;Humidity;BMP_temperature;BMP_pressure;BME280_temperature;BME280_humidity;BME280_pressure;Samples;Min_cycle;Max_cycle;Signal;HPM_P1;HPM_P2
2022/12/01 00:00:10;;;;;;;18.43;9.97;;;3.30;99.90;;;;;;4112563;28;20476;-65
2022/12/01 00:02:10;;;;;;;16.97;9.67;;;3.50;99.90;;;;;;4106139;28;20210;-66
2022/12/01 00:04:11;;;;;;;16.93;9.00;;;3.30;99.90;;;;;;4114644;28;20458;-66
2022/12/01 00:06:16;;;;;;;16.47;8.90;;;3.20;99.90;;;;;;4114712;28;20222;-66
2022/12/01 00:08:18;;;;;;;17.47;8.30;;;3.30;99.90;;;;;;4115138;28;20237;-65
2022/12/01 00:10:25;;;;;;;18.17;8.90;;;3.30;99.90;;;;;;4115102;28;20430;-66
2022/12/01 00:12:25;;;;;;;20.33;9.30;;;3.10;99.90;;;;;;4115247;28;20450;-67
2022/12/01 00:14:26;;;;;;;21.23;9.47;;;3.10;99.90;;;;;;4114913;28;20431;-67
2022/12/01 00:16:27;;;;;;;15.87;9.03;;;3.20;99.90;;;;;;4114259;28;20206;-66
2022/12/01 00:18:27;;;;;;;20.90;9.40;;;3.20;99.90;;;;;;4115237;28;20189;-67
2022/12/01 00:20:29;;;;;;;19.20;9.37;;;3.20;99.90;;;;;;4115151;28;20181;-67
2022/12/01 00:22:29;;;;;;;19.03;9.63;;;3.20;99.90;;;;;;4113925;28;20193;-66
2022/12/01 00:24:30;;;;;;;21.17;10.23;;;3.10;99.90;;;;;;4113072;28;20437;-67
2022/12/01 00:26:31;;;;;;;17.77;9.17;;;3.10;99.90;;;;;;4097757;29;20742;-66
2022/12/01 00:28:31;;;;;;;19.10;9.23;;;3.10;99.90;;;;;;4113852;28;20187;-67
2022/12/01 00:30:32;;;;;;;20.13;10.10;;;3.00;99.90;;;;;;4114820;28;20189;-67
2022/12/01 00:32:33;;;;;;;16.10;9.07;;;3.10;99.90;;;;;;4114624;28;20182;-65
2022/12/01 00:34:34;;;;;;;15.80;8.83;;;3.00;99.90;;;;;;4114629;28;20229;-66
2022/12/01 00:36:34;;;;;;;18.70;9.30;;;3.00;99.90;;;;;;4114915;28;20205;-67
2022/12/01 00:38:35;;;;;;;21.47;10.87;;;3.00;99.90;;;;;;4114804;28;20558;-65
2022/12/01 00:40:36;;;;;;;25.33;11.87;;;2.90;99.90;;;;;;4114481;28;20213;-66
2022/12/01 00:42:36;;;;;;;20.43;9.83;;;2.80;99.90;;;;;;4114451;28;20689;-66
2022/12/01 00:44:37;;;;;;;18.13;8.77;;;2.80;99.90;;;;;;4114515;28;20927;-66
2022/12/01 00:46:38;;;;;;;20.67;10.60;;;2.70;99.90;;;;;;4114540;28;20217;-67
2022/12/01 00:48:38;;;;;;;16.90;8.83;;;2.90;99.90;;;;;;4114365;28;20189;-66
2022/12/01 00:50:39;;;;;;;22.63;9.80;;;2.90;99.90;;;;;;4114504;28;20197;-67
2022/12/01 00:52:40;;;;;;;19.00;9.93;;;2.90;99.90;;;;;;4112834;28;20200;-66
2022/12/01 00:54:41;;;;;;;20.40;11.07;;;2.90;99.90;;;;;;4114709;28;20185;-67
2022/12/01 00:56:41;;;;;;;20.20;10.13;;;2.60;99.90;;;;;;4113130;28;20244;-65
2022/12/01 00:58:43;;;;;;;16.33;8.77;;;2.70;99.90;;;;;;4114580;28;20241;-67
2022/12/01 01:00:44;;;;;;;19.67;9.23;;;2.80;99.90;;;;;;4114497;28;20225;-66
2022/12/01 01:02:44;;;;;;;17.17;8.90;;;2.70;99.90;;;;;;4113846;28;20445;-66
2022/12/01 01:04:45;;;;;;;18.10;8.90;;;2.70;99.90;;;;;;4115820;28;20583;-67
2022/12/01 01:06:46;;;;;;;17.73;8.67;;;2.60;99.90;;;;;;4114820;28;20211;-67
2022/12/01 01:08:46;;;;;;;16.20;9.03;;;2.70;99.90;;;;;;4114036;28;20249;-67
2022/12/01 01:10:48;;;;;;;18.77;8.50;;;2.70;99.90;;;;;;4114792;28;20225;-67
2022/12/01 01:12:49;;;;;;;14.67;8.13;;;2.90;99.90;;;;;;4096708;28;20193;-67
2022/12/01 01:14:50;;;;;;;14.80;7.13;;;2.80;99.90;;;;;;4114500;28;20434;-67
2022/12/01 01:16:50;;;;;;;15.83;8.63;;;2.90;99.90;;;;;;4114503;28;20214;-67
2022/12/01 01:18:51;;;;;;;17.43;8.17;;;2.80;99.90;;;;;;4113198;28;20846;-67
2022/12/01 01:21:02;;;;;;;12.63;7.37;;;2.80;99.90;;;;;;4114573;28;20251;-67
2022/12/01 01:23:03;;;;;;;16.50;8.27;;;2.60;99.90;;;;;;4114036;28;20428;-67
2022/12/01 01:25:04;;;;;;;16.70;8.67;;;2.60;99.90;;;;;;4114624;28;20548;-67
2022/12/01 01:27:05;;;;;;;16.40;8.63;;;2.60;99.90;;;;;;4113288;28;20206;-67
2022/12/01 01:29:08;;;;;;;15.40;8.20;;;2.60;99.90;;;;;;4114735;28;20418;-68
2022/12/01 01:31:13;;;;;;;15.23;8.73;;;2.50;99.90;;;;;;4113021;28;20208;-66
2022/12/01 01:33:14;;;;;;;18.47;8.93;;;2.50;99.90;;;;;;4112322;28;20445;-67
2022/12/01 01:35:14;;;;;;;15.50;8.43;;;2.60;99.90;;;;;;4114255;28;20457;-66
2022/12/01 01:37:15;;;;;;;17.47;9.47;;;2.80;99.90;;;;;;4114125;28;20190;-66
2022/12/01 01:39:16;;;;;;;22.67;9.50;;;2.90;99.90;;;;;;4113754;28;20269;-65
2022/12/01 01:41:19;;;;;;;18.03;10.07;;;2.80;99.90;;;;;;4113803;28;20196;-66
2022/12/01 01:43:49;;;;;;;14.53;8.37;;;2.70;99.90;;;;;;4113265;28;20205;-67
2022/12/01 01:45:50;;;;;;;18.83;9.53;;;2.60;99.90;;;;;;4113916;28;21136;-67
2022/12/01 01:47:52;;;;;;;17.67;8.97;;;2.50;99.90;;;;;;4112542;28;20512;-67
2022/12/01 01:49:57;;;;;;;16.83;8.93;;;2.60;99.90;;;;;;4113768;28;20216;-65
2022/12/01 01:51:58;;;;;;;18.17;9.27;;;2.60;99.90;;;;;;4112261;28;20494;-66
2022/12/01 01:54:05;;;;;;;20.70;10.47;;;2.60;99.90;;;;;;4112971;28;20425;-66
2022/12/01 01:56:08;;;;;;;19.23;9.60;;;2.60;99.90;;;;;;4113801;28;20707;-67
2022/12/01 01:58:10;;;;;;;17.33;9.53;;;2.60;99.90;;;;;;4112308;28;20447;-67
2022/12/01 02:00:17;;;;;;;16.63;9.30;;;2.60;99.90;;;;;;4127987;28;20460;-67
2022/12/01 02:02:19;;;;;;;15.90;8.93;;;2.70;99.90;;;;;;4112554;28;20453;-67
2022/12/01 02:04:19;;;;;;;21.23;9.97;;;2.70;99.90;;;;;;4113399;28;20437;-66
2022/12/01 02:06:22;;;;;;;17.33;8.97;;;2.70;99.90;;;;;;4101612;28;20489;-67
2022/12/01 02:08:23;;;;;;;13.23;7.93;;;2.80;99.90;;;;;;4112413;28;20815;-67
2022/12/01 02:10:42;;;;;;;17.13;9.37;;;2.80;99.90;;;;;;4097569;28;20442;-67
2022/12/01 02:13:13;;;;;;;16.57;9.33;;;2.90;99.90;;;;;;4096991;28;20178;-67
2022/12/01 02:15:42;;;;;;;18.30;9.23;;;3.00;99.90;;;;;;4112216;28;20452;-66
2022/12/01 02:17:56;;;;;;;19.27;9.90;;;2.90;99.90;;;;;;4112458;28;20438;-66
2022/12/01 02:20:35;;;;;;;17.93;9.80;;;2.80;99.90;;;;;;4097440;28;20785;-67
2022/12/01 02:23:02;;;;;;;16.10;8.50;;;2.80;99.90;;;;;;4097053;28;20509;-67
2022/12/01 02:25:48;;;;;;;17.07;9.17;;;2.60;99.90;;;;;;4097379;28;20509;-65
2022/12/01 02:27:58;;;;;;;17.27;8.27;;;2.40;99.90;;;;;;4097503;28;20446;-65
2022/12/01 02:30:12;;;;;;;15.23;7.83;;;2.40;99.90;;;;;;4097530;28;20418;-66
2022/12/01 02:32:35;;;;;;;15.97;8.07;;;2.20;99.90;;;;;;4111930;28;20425;-66
2022/12/01 02:34:58;;;;;;;14.20;7.57;;;2.20;99.90;;;;;;4095940;29;20419;-66
2022/12/01 02:37:25;;;;;;;15.70;7.87;;;2.40;99.90;;;;;;4096205;29;20998;-66
2022/12/01 02:39:38;;;;;;;12.87;6.90;;;2.50;99.90;;;;;;4096019;29;20431;-67
2022/12/01 02:42:02;;;;;;;16.03;8.20;;;2.50;99.90;;;;;;4096275;29;21070;-66
2022/12/01 02:44:18;;;;;;;14.90;7.63;;;2.60;99.90;;;;;;4111649;28;20426;-68
2022/12/01 02:46:40;;;;;;;16.00;6.53;;;2.50;99.90;;;;;;4097377;28;20479;-67
2022/12/01 02:48:48;;;;;;;13.33;7.80;;;2.60;99.90;;;;;;4097654;28;20419;-66
2022/12/01 02:50:51;;;;;;;15.23;7.83;;;2.60;99.90;;;;;;4096279;28;20915;-67
2022/12/01 02:52:53;;;;;;;14.67;7.50;;;2.60;99.90;;;;;;4095612;29;20498;-66
2022/12/01 02:54:55;;;;;;;13.60;6.80;;;2.60;99.90;;;;;;4111801;28;20925;-66
2022/12/01 02:56:55;;;;;;;15.10;7.77;;;2.50;99.90;;;;;;4097389;28;20550;-67
2022/12/01 02:58:56;;;;;;;15.07;7.70;;;2.50;99.90;;;;;;4111990;28;21077;-66
2022/12/01 03:01:36;;;;;;;14.20;7.73;;;2.50;99.90;;;;;;4096998;28;20218;-66
2022/12/01 03:03:55;;;;;;;14.00;7.63;;;2.30;99.90;;;;;;4111067;28;20183;-66
2022/12/01 03:06:11;;;;;;;13.20;7.20;;;2.20;99.90;;;;;;4111626;28;20474;-65
2022/12/01 03:08:44;;;;;;;13.30;6.83;;;2.30;99.90;;;;;;4111730;28;20432;-66
2022/12/01 03:10:53;;;;;;;15.37;7.10;;;2.30;99.90;;;;;;4112669;28;20974;-65
2022/12/01 03:13:20;;;;;;;15.70;8.10;;;2.50;99.90;;;;;;4099458;28;20418;-66
2022/12/01 03:15:53;;;;;;;17.40;7.83;;;2.40;99.90;;;;;;4099787;28;20449;-66
2022/12/01 03:17:59;;;;;;;17.53;9.60;;;2.50;99.90;;;;;;4114623;28;20458;-67
2022/12/01 03:20:12;;;;;;;14.33;7.73;;;2.40;99.90;;;;;;4100110;28;20954;-67
2022/12/01 03:22:25;;;;;;;17.53;8.20;;;2.20;99.90;;;;;;4114627;28;20430;-65
2022/12/01 03:24:31;;;;;;;15.13;7.70;;;2.20;99.90;;;;;;4114340;28;20950;-66
2022/12/01 03:26:35;;;;;;;16.13;8.57;;;2.30;99.90;;;;;;4099873;28;20840;-66
2022/12/01 03:28:44;;;;;;;17.07;8.63;;;2.20;99.90;;;;;;4114445;28;20422;-67
2022/12/01 03:30:47;;;;;;;16.03;8.90;;;2.10;99.90;;;;;;4108417;28;20451;-67
2022/12/01 03:32:54;;;;;;;13.97;7.50;;;2.20;99.90;;;;;;4114911;28;20449;-66
2022/12/01 03:35:09;;;;;;;16.90;8.60;;;2.30;99.90;;;;;;4114494;28;20845;-66
2022/12/01 03:37:21;;;;;;;15.27;8.10;;;2.30;99.90;;;;;;4115793;28;20424;-66
2022/12/01 03:39:32;;;;;;;13.83;7.37;;;2.40;99.90;;;;;;4114400;28;20447;-66
2022/12/01 03:41:49;;;;;;;14.53;8.10;;;2.30;99.90;;;;;;4130454;28;20973;-65
2022/12/01 03:43:58;;;;;;;14.70;8.57;;;2.30;99.90;;;;;;4113653;28;20497;-66
2022/12/01 03:46:32;;;;;;;15.83;7.63;;;2.40;99.90;;;;;;4113186;28;20477;-66
2022/12/01 03:48:33;;;;;;;19.53;8.67;;;2.50;99.90;;;;;;4130226;28;20470;-66
2022/12/01 03:51:21;;;;;;;16.17;8.50;;;2.60;99.90;;;;;;4115650;28;20425;-65
2022/12/01 03:53:27;;;;;;;18.17;8.87;;;2.50;99.90;;;;;;4115160;28;20630;-65
2022/12/01 03:55:30;;;;;;;15.37;8.30;;;2.30;99.90;;;;;;4114140;28;20478;-66
2022/12/01 03:57:42;;;;;;;17.07;9.10;;;2.40;99.90;;;;;;4114190;28;20513;-66
2022/12/01 03:59:44;;;;;;;18.43;9.17;;;2.30;99.90;;;;;;4104961;28;20433;-67
2022/12/01 04:01:45;;;;;;;18.03;9.70;;;2.20;99.90;;;;;;4113812;28;20449;-67
2022/12/01 04:03:46;;;;;;;17.43;9.30;;;2.20;99.90;;;;;;4098665;28;20466;-67
2022/12/01 04:05:47;;;;;;;18.23;9.27;;;2.30;99.90;;;;;;4099153;28;21082;-67
2022/12/01 04:07:48;;;;;;;20.40;10.10;;;2.20;99.90;;;;;;4113974;28;20278;-67
2022/12/01 04:09:48;;;;;;;19.27;9.23;;;2.20;99.90;;;;;;4099320;28;20529;-67
2022/12/01 04:14:08;;;;;;;18.63;9.30;;;2.20;99.90;;;;;;4098707;29;20206;-67
2022/12/01 04:16:08;;;;;;;17.47;8.97;;;2.10;99.90;;;;;;4114094;28;20461;-66
2022/12/01 04:18:09;;;;;;;17.63;9.47;;;2.00;99.90;;;;;;4099374;28;20199;-66
2022/12/01 04:20:14;;;;;;;19.63;9.30;;;2.00;99.90;;;;;;4098982;28;20198;-66
2022/12/01 04:22:15;;;;;;;19.87;9.63;;;2.10;99.90;;;;;;4113301;28;20190;-66
2022/12/01 04:24:15;;;;;;;21.87;11.13;;;2.10;99.90;;;;;;4098264;28;20436;-67
2022/12/01 04:26:16;;;;;;;18.30;10.17;;;2.10;99.90;;;;;;4113819;28;20221;-67
2022/12/01 04:28:17;;;;;;;18.87;9.17;;;1.90;99.90;;;;;;4099020;28;20198;-66
2022/12/01 04:30:17;;;;;;;20.03;9.37;;;1.90;99.90;;;;;;4098917;28;20187;-67
2022/12/01 04:32:18;;;;;;;19.97;9.57;;;2.00;99.90;;;;;;4099000;28;20187;-67
2022/12/01 04:34:19;;;;;;;18.73;9.57;;;2.00;99.90;;;;;;4113167;28;20270;-65
2022/12/01 04:36:19;;;;;;;17.40;9.30;;;2.00;99.90;;;;;;4097726;29;20214;-67
2022/12/01 04:38:20;;;;;;;16.17;8.60;;;2.00;99.90;;;;;;4098984;28;20226;-67
2022/12/01 04:40:21;;;;;;;23.97;11.57;;;2.00;99.90;;;;;;4098801;28;20183;-67
2022/12/01 04:42:21;;;;;;;21.97;11.07;;;2.10;99.90;;;;;;4098746;29;20199;-66
2022/12/01 04:44:22;;;;;;;23.37;11.33;;;2.10;99.90;;;;;;4097924;29;20213;-66
2022/12/01 04:46:24;;;;;;;27.10;12.93;;;2.10;99.90;;;;;;4098469;29;20238;-67
2022/12/01 04:48:24;;;;;;;27.23;12.87;;;2.00;99.90;;;;;;4098578;28;20181;-66
2022/12/01 04:50:25;;;;;;;25.50;11.87;;;1.90;99.90;;;;;;4098533;29;20435;-67
2022/12/01 04:52:26;;;;;;;24.33;11.83;;;1.80;99.90;;;;;;4098478;29;20178;-68
2022/12/01 04:54:26;;;;;;;24.97;12.37;;;1.80;99.90;;;;;;4097960;28;20654;-69
2022/12/01 04:56:27;;;;;;;29.77;13.03;;;1.70;99.90;;;;;;4098356;29;21068;-67
2022/12/01 04:58:31;;;;;;;26.30;11.90;;;1.90;99.90;;;;;;4113066;28;20185;-66
2022/12/01 05:00:32;;;;;;;22.90;11.70;;;1.80;99.90;;;;;;4112774;28;20432;-67
2022/12/01 05:02:33;;;;;;;24.13;12.30;;;1.80;99.90;;;;;;4112538;28;20449;-66
2022/12/01 05:04:37;;;;;;;23.63;11.97;;;1.80;99.90;;;;;;4113826;28;20433;-67
2022/12/01 05:06:38;;;;;;;24.10;12.47;;;1.80;99.90;;;;;;4113930;28;20207;-67
2022/12/01 05:08:40;;;;;;;30.27;14.50;;;1.90;99.90;;;;;;4112560;28;20436;-66
2022/12/01 05:10:40;;;;;;;24.23;12.70;;;1.80;99.90;;;;;;4112619;28;20431;-66
2022/12/01 05:12:41;;;;;;;23.67;12.13;;;1.70;99.90;;;;;;4113330;28;20461;-67
2022/12/01 05:14:42;;;;;;;21.53;12.77;;;1.70;99.90;;;;;;4113822;28;20181;-67
2022/12/01 05:16:42;;;;;;;24.03;12.33;;;1.70;99.90;;;;;;4114088;28;20196;-66
2022/12/01 05:18:48;;;;;;;22.20;11.70;;;1.50;99.90;;;;;;4113882;28;20246;-66
2022/12/01 05:20:57;;;;;;;18.80;9.93;;;1.40;99.90;;;;;;4112689;28;20205;-67
2022/12/01 05:22:58;;;;;;;19.13;10.33;;;1.50;99.90;;;;;;4113281;28;20413;-67
2022/12/01 05:24:59;;;;;;;26.17;11.10;;;1.60;99.90;;;;;;4113563;28;20524;-66
2022/12/01 05:27:00;;;;;;;21.60;10.37;;;1.50;99.90;;;;;;4113971;28;20188;-69
2022/12/01 05:29:01;;;;;;;21.40;11.43;;;1.60;99.90;;;;;;4113696;28;20268;-66
2022/12/01 05:31:02;;;;;;;19.87;10.70;;;1.60;99.90;;;;;;4113852;28;20179;-67
2022/12/01 05:33:03;;;;;;;22.83;10.67;;;1.60;99.90;;;;;;4113260;28;20185;-67
2022/12/01 05:35:04;;;;;;;23.27;10.97;;;1.20;99.90;;;;;;4112921;28;20507;-67
2022/12/01 05:37:05;;;;;;;22.27;11.53;;;1.30;99.90;;;;;;4114094;28;20897;-67
2022/12/01 05:39:05;;;;;;;20.93;11.37;;;1.40;99.90;;;;;;4113609;28;20439;-67
2022/12/01 05:41:06;;;;;;;20.27;10.47;;;1.30;99.90;;;;;;4113472;28;20183;-67
2022/12/01 05:43:07;;;;;;;21.07;10.57;;;1.30;99.90;;;;;;4111894;28;20195;-67
2022/12/01 05:45:08;;;;;;;20.37;10.40;;;1.30;99.90;;;;;;4112984;28;20208;-68
2022/12/01 05:47:09;;;;;;;20.57;10.50;;;1.40;99.90;;;;;;4113713;28;20896;-67
2022/12/01 05:49:09;;;;;;;24.73;11.00;;;1.40;99.90;;;;;;4113410;28;20443;-67
2022/12/01 05:51:14;;;;;;;24.67;11.90;;;1.30;99.90;;;;;;4113510;28;20195;-67
2022/12/01 05:53:15;;;;;;;22.10;10.40;;;1.40;99.90;;;;;;4112882;28;20211;-67
2022/12/01 05:55:16;;;;;;;21.67;10.90;;;1.40;99.90;;;;;;4112020;28;20437;-65
2022/12/01 05:57:16;;;;;;;19.77;10.17;;;1.50;99.90;;;;;;4111699;28;20193;-65
2022/12/01 05:59:17;;;;;;;22.93;11.60;;;1.30;99.90;;;;;;4113357;28;20488;-67
2022/12/01 06:01:18;;;;;;;20.37;10.77;;;1.30;99.90;;;;;;4113328;28;20188;-65
2022/12/01 06:03:18;;;;;;;20.60;10.97;;;1.40;99.90;;;;;;4112791;28;20197;-66
2022/12/01 06:05:19;;;;;;;23.37;11.57;;;1.50;99.90;;;;;;4113403;28;20231;-66
2022/12/01 06:07:22;;;;;;;24.93;11.37;;;1.60;99.90;;;;;;4113473;28;20277;-65
2022/12/01 06:09:22;;;;;;;21.63;11.00;;;1.60;99.90;;;;;;4113323;28;20185;-66
2022/12/01 06:11:23;;;;;;;26.20;11.90;;;1.60;99.90;;;;;;4112250;28;20522;-66
2022/12/01 06:13:24;;;;;;;23.57;12.60;;;1.60;99.90;;;;;;4112555;28;20239;-66
2022/12/01 06:15:26;;;;;;;20.23;10.23;;;1.60;99.90;;;;;;4113175;28;20214;-66
2022/12/01 06:17:27;;;;;;;25.63;11.03;;;1.60;99.90;;;;;;4112250;28;20442;-66
2022/12/01 06:19:27;;;;;;;26.40;12.20;;;1.60;99.90;;;;;;4113192;28;20428;-66
2022/12/01 06:21:28;;;;;;;27.37;12.53;;;1.60;99.90;;;;;;4113116;28;20242;-66
2022/12/01 06:23:29;;;;;;;23.10;11.63;;;1.60;99.90;;;;;;4111049;28;20197;-66
2022/12/01 06:25:30;;;;;;;22.03;11.87;;;1.30;99.90;;;;;;4112905;28;20233;-66
2022/12/01 06:27:30;;;;;;;27.43;12.83;;;1.20;99.90;;;;;;4113159;28;20176;-66
2022/12/01 06:29:31;;;;;;;23.03;10.10;;;1.30;99.90;;;;;;4113194;28;20595;-68
2022/12/01 06:31:32;;;;;;;23.27;11.60;;;1.40;99.90;;;;;;4113287;28;20713;-66
2022/12/01 06:33:32;;;;;;;21.70;10.57;;;1.30;99.90;;;;;;4112479;28;20555;-66
2022/12/01 06:35:34;;;;;;;27.57;11.70;;;1.30;99.90;;;;;;4113194;28;20261;-66
2022/12/01 06:37:35;;;;;;;25.57;12.47;;;1.40;99.90;;;;;;4113250;28;20656;-66
2022/12/01 06:39:36;;;;;;;26.40;12.87;;;1.40;99.90;;;;;;4113036;28;20434;-67
2022/12/01 06:41:37;;;;;;;25.20;11.50;;;1.50;99.90;;;;;;4113246;28;20189;-65
2022/12/01 06:43:38;;;;;;;22.03;11.47;;;1.30;99.90;;;;;;4111382;28;20184;-66
2022/12/01 06:45:39;;;;;;;23.90;11.43;;;1.50;99.90;;;;;;4112511;28;20480;-65
2022/12/01 06:47:39;;;;;;;26.07;11.80;;;1.60;99.90;;;;;;4116267;28;20583;-66
2022/12/01 06:49:40;;;;;;;26.13;11.70;;;1.60;99.90;;;;;;4116199;28;20566;-66
2022/12/01 06:51:41;;;;;;;26.27;12.53;;;1.50;99.90;;;;;;4116272;28;20177;-65
2022/12/01 06:53:42;;;;;;;25.50;11.63;;;1.40;99.90;;;;;;4115627;28;20188;-66
2022/12/01 06:55:42;;;;;;;26.07;12.40;;;1.50;99.90;;;;;;4116470;28;20270;-66
2022/12/01 06:57:43;;;;;;;23.90;12.33;;;1.50;99.90;;;;;;4116313;28;20196;-66
2022/12/01 06:59:44;;;;;;;26.37;11.73;;;1.50;99.90;;;;;;4116129;28;20191;-66
2022/12/01 07:01:44;;;;;;;29.03;12.13;;;1.30;99.90;;;;;;4114832;28;20251;-66
2022/12/01 07:03:49;;;;;;;25.03;12.03;;;1.30;99.90;;;;;;4115550;28;20210;-66
2022/12/01 07:05:59;;;;;;;25.00;12.50;;;1.40;99.90;;;;;;4115965;28;20227;-66
2022/12/01 07:08:00;;;;;;;25.33;12.70;;;1.30;99.90;;;;;;4114833;28;20845;-65
2022/12/01 07:10:00;;;;;;;22.47;11.27;;;1.20;99.90;;;;;;4116201;28;20431;-66
2022/12/01 07:12:01;;;;;;;22.57;12.10;;;1.30;99.90;;;;;;4114685;28;20485;-66
2022/12/01 07:14:02;;;;;;;27.10;12.83;;;1.50;99.90;;;;;;4115379;28;20248;-67
2022/12/01 07:16:05;;;;;;;27.27;13.57;;;1.40;99.90;;;;;;4114967;28;20219;-67
2022/12/01 07:18:05;;;;;;;26.20;12.00;;;1.40;99.90;;;;;;4114721;28;21131;-66
2022/12/01 07:20:09;;;;;;;27.53;11.93;;;1.60;99.90;;;;;;4115839;28;20426;-65
2022/12/01 07:22:09;;;;;;;26.10;12.77;;;1.50;99.90;;;;;;4109780;28;20242;-67
2022/12/01 07:24:11;;;;;;;27.50;12.60;;;1.60;99.90;;;;;;4115076;28;20430;-67
2022/12/01 07:26:16;;;;;;;24.50;11.80;;;1.60;99.90;;;;;;4115724;28;20235;-67
2022/12/01 07:28:16;;;;;;;29.03;13.93;;;1.60;99.90;;;;;;4115334;28;20488;-66
2022/12/01 07:30:17;;;;;;;26.77;12.27;;;1.40;99.90;;;;;;4115912;28;20418;-66
2022/12/01 07:32:18;;;;;;;30.47;14.33;;;1.30;99.90;;;;;;4115818;28;20314;-67
2022/12/01 07:34:19;;;;;;;28.23;12.77;;;1.40;99.90;;;;;;4115005;28;20664;-67
2022/12/01 07:36:19;;;;;;;22.90;11.30;;;1.30;99.90;;;;;;4115408;28;20458;-66
2022/12/01 07:38:20;;;;;;;34.50;13.00;;;1.30;99.90;;;;;;4114105;28;20674;-66
2022/12/01 07:40:22;;;;;;;26.90;13.50;;;1.30;99.90;;;;;;4114255;28;20185;-66
2022/12/01 07:42:22;;;;;;;30.47;14.60;;;1.40;99.90;;;;;;4114188;28;20189;-65
2022/12/01 07:44:23;;;;;;;27.10;12.30;;;1.50;99.90;;;;;;4114699;28;20442;-66
2022/12/01 07:46:26;;;;;;;25.43;13.17;;;1.40;99.90;;;;;;4115430;28;20234;-66
2022/12/01 07:48:29;;;;;;;28.53;12.80;;;1.30;99.90;;;;;;4115880;28;20196;-65
2022/12/01 07:50:29;;;;;;;27.97;12.57;;;1.10;99.90;;;;;;4115585;28;20434;-66
2022/12/01 07:52:30;;;;;;;20.20;9.43;;;1.10;99.90;;;;;;4115261;28;20432;-65
2022/12/01 07:54:30;;;;;;;24.50;11.30;;;1.20;99.90;;;;;;4114540;28;20185;-65
2022/12/01 07:56:32;;;;;;;20.93;10.57;;;1.30;99.90;;;;;;4113473;28;20212;-66
2022/12/01 07:58:33;;;;;;;24.10;10.77;;;1.40;99.90;;;;;;4099840;28;20763;-65
2022/12/01 08:00:33;;;;;;;20.93;10.63;;;1.50;99.90;;;;;;4099189;28;20429;-65
2022/12/01 08:02:34;;;;;;;24.17;10.70;;;1.60;99.90;;;;;;4098820;29;20204;-66
2022/12/01 08:04:36;;;;;;;23.93;11.57;;;1.50;99.90;;;;;;4113993;28;20210;-65
2022/12/01 08:06:37;;;;;;;20.20;9.77;;;1.60;99.90;;;;;;4099336;29;20496;-65
2022/12/01 08:08:39;;;;;;;23.43;9.83;;;1.50;99.90;;;;;;4099130;29;20177;-65
2022/12/01 08:10:40;;;;;;;23.77;10.63;;;1.50;99.90;;;;;;4099105;28;20298;-65
2022/12/01 08:12:41;;;;;;;27.63;11.83;;;1.50;99.90;;;;;;4098294;29;20471;-64
2022/12/01 08:14:41;;;;;;;24.83;11.40;;;1.40;99.90;;;;;;4099000;28;20182;-65
2022/12/01 08:16:42;;;;;;;27.73;13.63;;;1.50;99.90;;;;;;4099125;29;20607;-65
2022/12/01 08:18:43;;;;;;;24.97;12.03;;;1.60;99.90;;;;;;4099057;29;20186;-65
2022/12/01 08:20:44;;;;;;;22.53;11.03;;;1.50;99.90;;;;;;4099154;28;20727;-65
2022/12/01 08:22:45;;;;;;;23.20;10.37;;;1.50;99.90;;;;;;4098574;29;20436;-65
2022/12/01 08:24:45;;;;;;;23.77;10.93;;;1.40;99.90;;;;;;4099052;29;20192;-64
2022/12/01 08:26:46;;;;;;;23.03;10.07;;;1.50;99.90;;;;;;4098993;29;20215;-66
2022/12/01 08:28:47;;;;;;;24.40;10.23;;;1.60;99.90;;;;;;4099031;29;20184;-65
2022/12/01 08:30:48;;;;;;;20.77;9.83;;;1.50;99.90;;;;;;4099123;28;20189;-66
2022/12/01 08:32:52;;;;;;;26.47;12.90;;;1.50;99.90;;;;;;4098575;28;20505;-66
2022/12/01 08:34:53;;;;;;;22.10;10.37;;;1.50;99.90;;;;;;4113808;28;20183;-66
2022/12/01 08:36:53;;;;;;;23.83;10.13;;;1.60;99.90;;;;;;4099011;28;20958;-66
2022/12/01 08:38:55;;;;;;;19.17;8.97;;;1.60;99.90;;;;;;4098881;28;20247;-66
2022/12/01 08:41:03;;;;;;;20.17;9.20;;;1.50;99.90;;;;;;4113552;28;20527;-66
2022/12/01 08:43:04;;;;;;;16.20;8.77;;;1.60;99.90;;;;;;4098154;28;20722;-66
2022/12/01 08:45:05;;;;;;;19.07;9.80;;;1.80;99.90;;;;;;4113347;28;20607;-66
2022/12/01 08:47:06;;;;;;;20.17;9.33;;;1.80;99.90;;;;;;4098972;28;20444;-65
2022/12/01 08:49:07;;;;;;;17.90;8.87;;;1.90;99.90;;;;;;4098717;28;20508;-65
2022/12/01 08:51:12;;;;;;;15.50;7.80;;;1.90;99.90;;;;;;4098569;29;20218;-65
2022/12/01 08:53:12;;;;;;;17.70;8.53;;;1.80;99.90;;;;;;4112540;28;20194;-66
2022/12/01 08:55:13;;;;;;;21.17;9.73;;;1.80;99.90;;;;;;4098214;29;20805;-66
2022/12/01 08:57:14;;;;;;;17.33;8.60;;;2.00;99.90;;;;;;4098605;28;20189;-67
2022/12/01 08:59:14;;;;;;;19.13;10.13;;;2.10;99.90;;;;;;4113125;28;20224;-66
2022/12/01 09:01:16;;;;;;;21.40;9.83;;;2.20;99.90;;;;;;4098324;28;20189;-66
2022/12/01 09:03:17;;;;;;;17.47;9.10;;;2.10;99.90;;;;;;4097705;28;20239;-65
2022/12/01 09:05:17;;;;;;;18.30;9.20;;;2.10;99.90;;;;;;4112809;28;20474;-66
2022/12/01 09:07:19;;;;;;;20.03;9.07;;;2.20;99.90;;;;;;4098203;28;20684;-66
2022/12/01 09:09:24;;;;;;;16.13;8.53;;;2.30;99.90;;;;;;4098193;28;20640;-66
2022/12/01 09:11:25;;;;;;;17.97;9.27;;;2.10;99.90;;;;;;4112766;28;20434;-66
2022/12/01 09:13:27;;;;;;;19.53;8.80;;;2.20;99.90;;;;;;4097486;28;20934;-66
2022/12/01 09:15:28;;;;;;;13.30;8.03;;;2.40;99.90;;;;;;4098038;28;20607;-66
2022/12/01 09:17:28;;;;;;;18.27;9.33;;;2.40;99.90;;;;;;4098167;28;20444;-67
2022/12/01 09:19:29;;;;;;;15.70;8.60;;;2.30;99.90;;;;;;4098080;28;20226;-65
2022/12/01 09:21:32;;;;;;;18.43;8.60;;;2.30;99.90;;;;;;4097986;28;20193;-66
2022/12/01 09:23:33;;;;;;;16.37;8.83;;;2.50;99.90;;;;;;4097397;28;20195;-65
2022/12/01 09:25:33;;;;;;;16.17;8.60;;;2.50;99.90;;;;;;4098118;28;20550;-66
2022/12/01 09:27:34;;;;;;;18.47;9.83;;;2.50;99.90;;;;;;4098088;28;20192;-66
2022/12/01 09:29:35;;;;;;;19.50;9.57;;;2.40;99.90;;;;;;4112362;28;20178;-66
2022/12/01 09:31:36;;;;;;;24.77;10.73;;;2.40;99.90;;;;;;4098032;28;20185;-66
2022/12/01 09:33:38;;;;;;;19.50;9.43;;;2.50;99.90;;;;;;4111852;28;20240;-66
2022/12/01 09:35:38;;;;;;;18.67;8.63;;;2.60;99.90;;;;;;4102102;28;20470;-67
2022/12/01 09:37:39;;;;;;;23.57;9.63;;;2.50;99.90;;;;;;4113712;28;20923;-65
2022/12/01 09:39:40;;;;;;;19.97;9.87;;;2.30;99.90;;;;;;4113692;28;20187;-66
2022/12/01 09:42:01;;;;;;;19.30;8.73;;;2.20;99.90;;;;;;4113678;28;20635;-66
2022/12/01 09:44:14;;;;;;;16.73;8.80;;;2.30;99.90;;;;;;4111746;28;20174;-65
2022/12/01 09:46:25;;;;;;;18.17;8.93;;;2.40;99.90;;;;;;4113414;28;20551;-66
2022/12/01 09:48:33;;;;;;;17.53;9.27;;;2.50;99.90;;;;;;4112214;28;20463;-66
2022/12/01 09:50:35;;;;;;;19.07;9.23;;;2.70;99.90;;;;;;4128309;28;20423;-66
2022/12/01 09:52:46;;;;;;;17.20;8.30;;;2.40;99.90;;;;;;4111829;28;20435;-66
2022/12/01 09:54:47;;;;;;;18.60;8.87;;;2.40;99.90;;;;;;4111947;28;20485;-66
2022/12/01 09:56:54;;;;;;;19.33;9.27;;;2.50;99.90;;;;;;4113732;28;20456;-66
2022/12/01 09:58:59;;;;;;;19.63;9.60;;;2.60;99.90;;;;;;4113771;28;20834;-65
2022/12/01 10:01:00;;;;;;;19.53;9.50;;;2.70;99.90;;;;;;4112411;28;20449;-66
2022/12/01 10:03:44;;;;;;;19.23;9.77;;;2.90;99.90;;;;;;4110693;28;20446;-66
2022/12/01 10:05:50;;;;;;;16.57;9.07;;;2.70;99.90;;;;;;4111736;28;20228;-67
2022/12/01 10:07:58;;;;;;;22.63;10.10;;;2.60;99.90;;;;;;4097248;28;20422;-66
2022/12/01 10:10:09;;;;;;;19.23;10.57;;;2.50;99.90;;;;;;4097361;28;20421;-66
2022/12/01 10:12:21;;;;;;;18.97;10.03;;;2.30;99.90;;;;;;4112244;28;20442;-66
2022/12/01 10:14:22;;;;;;;22.43;9.83;;;2.30;99.90;;;;;;4096898;28;20417;-66
2022/12/01 10:16:31;;;;;;;20.83;8.93;;;2.30;99.90;;;;;;4112268;28;20499;-66
2022/12/01 10:18:55;;;;;;;20.73;9.33;;;2.40;99.90;;;;;;4112097;28;20213;-66
2022/12/01 10:21:23;;;;;;;17.53;9.27;;;2.30;99.90;;;;;;4096680;28;20501;-66
2022/12/01 10:23:46;;;;;;;24.13;10.50;;;2.20;99.90;;;;;;4096713;28;20435;-66
2022/12/01 10:26:13;;;;;;;15.97;8.50;;;2.30;99.90;;;;;;4096373;29;20567;-66
2022/12/01 10:28:27;;;;;;;18.43;9.27;;;2.40;99.90;;;;;;4097566;28;20415;-66
2022/12/01 10:30:27;;;;;;;21.63;9.67;;;2.40;99.90;;;;;;4112032;28;20508;-66
2022/12/01 10:32:40;;;;;;;18.83;9.70;;;2.50;99.90;;;;;;4097275;28;20873;-66
2022/12/01 10:34:42;;;;;;;20.93;9.43;;;2.60;99.90;;;;;;4097372;28;20178;-66
2022/12/01 10:36:43;;;;;;;19.40;9.80;;;2.50;99.90;;;;;;4111881;28;20453;-65
2022/12/01 10:38:43;;;;;;;20.50;9.87;;;2.50;99.90;;;;;;4097391;28;20444;-66
2022/12/01 10:40:45;;;;;;;23.03;11.17;;;2.30;99.90;;;;;;4112593;28;20665;-66
2022/12/01 10:42:48;;;;;;;17.20;9.30;;;2.20;99.90;;;;;;4111837;28;20218;-66
2022/12/01 10:44:50;;;;;;;20.10;9.23;;;2.20;99.90;;;;;;4097203;28;21147;-66
2022/12/01 10:46:55;;;;;;;21.53;10.10;;;2.20;99.90;;;;;;4097180;29;20460;-66